sensor_id;sensor_type;location;lat;lon;timestamp;P1;durP1;ratioP1;P2;durP2;ratioP2
30000;SDS011;16845;48.670;9.000;2023-02-26T00:01:10;3.67;;;2.50;;
30000;SDS011;16845;48.670;9.000;2023-02-26T00:03:38;4.05;;;2.72;;
30000;SDS011;16845;48.670;9.000;2023-02-26T00:06:07;7.65;;;3.13;;
30000;SDS011;16845;48.670;9.000;2023-02-26T00:08:35;5.90;;;3.53;;
30000;SDS011;16845;48.670;9.000;2023-02-26T00:11:05;5.53;;;2.88;;
30000;SDS011;16845;48.670;9.000;2023-02-26T00:13:34;6.47;;;3.28;;
30000;SDS011;16845;48.670;9.000;2023-02-26T00:16:08;5.13;;;2.60;;
30000;SDS011;16845;48.670;9.000;2023-02-26T00:18:41;4.90;;;2.85;;
30000;SDS011;16845;48.670;9.000;2023-02-26T00:21:12;4.35;;;2.63;;
30000;SDS011;16845;48.670;9.000;2023-02-26T00:23:42;4.68;;;3.17;;
30000;SDS011;16845;48.670;9.000;2023-02-26T00:26:11;5.15;;;3.00;;
30000;SDS011;16845;48.670;9.000;2023-02-26T00:28:39;6.53;;;3.17;;
30000;SDS011;16845;48.670;9.000;2023-02-26T00:31:09;4.90;;;2.95;;
30000;SDS011;16845;48.670;9.000;2023-02-26T00:33:38;11.20;;;3.90;;
30000;SDS011;16845;48.670;9.000;2023-02-26T00:36:11;7.38;;;3.05;;
30000;SDS011;16845;48.670;9.000;2023-02-26T00:38:58;4.95;;;2.90;;
30000;SDS011;16845;48.670;9.000;2023-02-26T00:41:34;7.85;;;3.17;;
30000;SDS011;16845;48.670;9.000;2023-02-26T00:44:04;6.38;;;3.45;;
30000;SDS011;16845;48.670;9.000;2023-02-26T00:46:37;6.80;;;3.55;;
30000;SDS011;16845;48.670;9.000;2023-02-26T00:49:13;5.57;;;3.42;;
30000;SDS011;16845;48.670;9.000;2023-02-26T00:51:51;6.55;;;3.08;;
30000;SDS011;16845;48.670;9.000;2023-02-26T00:54:22;4.70;;;2.60;;
30000;SDS011;16845;48.670;9.000;2023-02-26T00:56:52;6.47;;;2.88;;
30000;SDS011;16845;48.670;9.000;2023-02-26T00:59:21;6.85;;;2.88;;
30000;SDS011;16845;48.670;9.000;2023-02-26T01:01:51;6.93;;;3.20;;
30000;SDS011;16845;48.670;9.000;2023-02-26T01:04:20;5.07;;;2.90;;
30000;SDS011;16845;48.670;9.000;2023-02-26T01:06:50;6.05;;;3.08;;
30000;SDS011;16845;48.670;9.000;2023-02-26T01:09:21;6.57;;;3.45;;
30000;SDS011;16845;48.670;9.000;2023-02-26T01:11:52;7.32;;;3.13;;
30000;SDS011;16845;48.670;9.000;2023-02-26T01:14:22;6.97;;;2.97;;
30000;SDS011;16845;48.670;9.000;2023-02-26T01:16:53;8.52;;;3.42;;
30000;SDS011;16845;48.670;9.000;2023-02-26T01:19:30;6.57;;;3.33;;
30000;SDS011;16845;48.670;9.000;2023-02-26T01:22:05;8.57;;;4.00;;
30000;SDS011;16845;48.670;9.000;2023-02-26T01:24:38;3.90;;;2.50;;
30000;SDS011;16845;48.670;9.000;2023-02-26T01:27:07;5.22;;;2.83;;
30000;SDS011;16845;48.670;9.000;2023-02-26T01:29:35;5.10;;;2.60;;
30000;SDS011;16845;48.670;9.000;2023-02-26T01:32:06;10.30;;;3.47;;
30000;SDS011;16845;48.670;9.000;2023-02-26T01:34:41;4.03;;;2.80;;
30000;SDS011;16845;48.670;9.000;2023-02-26T01:37:18;8.93;;;2.90;;
30000;SDS011;16845;48.670;9.000;2023-02-26T01:39:54;4.90;;;3.20;;
30000;SDS011;16845;48.670;9.000;2023-02-26T01:42:42;9.25;;;2.78;;
30000;SDS011;16845;48.670;9.000;2023-02-26T01:45:13;5.20;;;2.85;;
30000;SDS011;16845;48.670;9.000;2023-02-26T01:47:47;5.00;;;3.10;;
30000;SDS011;16845;48.670;9.000;2023-02-26T01:50:20;5.40;;;2.72;;
30000;SDS011;16845;48.670;9.000;2023-02-26T01:55:43;7.25;;;2.88;;
30000;SDS011;16845;48.670;9.000;2023-02-26T01:58:15;4.55;;;2.80;;
30000;SDS011;16845;48.670;9.000;2023-02-26T02:00:44;6.50;;;3.17;;
30000;SDS011;16845;48.670;9.000;2023-02-26T02:03:14;3.70;;;2.40;;
30000;SDS011;16845;48.670;9.000;2023-02-26T02:05:42;7.03;;;2.90;;
30000;SDS011;16845;48.670;9.000;2023-02-26T02:08:14;6.70;;;2.42;;
30000;SDS011;16845;48.670;9.000;2023-02-26T02:10:42;8.05;;;2.92;;
30000;SDS011;16845;48.670;9.000;2023-02-26T02:13:14;5.43;;;2.60;;
30000;SDS011;16845;48.670;9.000;2023-02-26T02:15:53;4.70;;;2.38;;
30000;SDS011;16845;48.670;9.000;2023-02-26T02:18:33;8.43;;;3.53;;
30000;SDS011;16845;48.670;9.000;2023-02-26T02:21:18;5.28;;;2.70;;
30000;SDS011;16845;48.670;9.000;2023-02-26T02:23:58;9.32;;;2.90;;
30000;SDS011;16845;48.670;9.000;2023-02-26T02:26:41;5.97;;;2.88;;
30000;SDS011;16845;48.670;9.000;2023-02-26T02:32:26;6.38;;;3.05;;
30000;SDS011;16845;48.670;9.000;2023-02-26T02:34:58;5.47;;;3.30;;
30000;SDS011;16845;48.670;9.000;2023-02-26T02:37:33;7.20;;;2.88;;
30000;SDS011;16845;48.670;9.000;2023-02-26T02:40:03;5.63;;;2.20;;
30000;SDS011;16845;48.670;9.000;2023-02-26T02:42:34;9.15;;;2.80;;
30000;SDS011;16845;48.670;9.000;2023-02-26T02:45:08;6.85;;;2.45;;
30000;SDS011;16845;48.670;9.000;2023-02-26T02:47:42;6.43;;;2.80;;
30000;SDS011;16845;48.670;9.000;2023-02-26T02:50:13;4.13;;;2.40;;
30000;SDS011;16845;48.670;9.000;2023-02-26T02:52:47;5.18;;;2.45;;
30000;SDS011;16845;48.670;9.000;2023-02-26T02:55:21;9.82;;;3.25;;
30000;SDS011;16845;48.670;9.000;2023-02-26T02:57:54;7.22;;;2.72;;
30000;SDS011;16845;48.670;9.000;2023-02-26T03:00:27;6.82;;;2.83;;
30000;SDS011;16845;48.670;9.000;2023-02-26T03:03:02;5.57;;;2.60;;
30000;SDS011;16845;48.670;9.000;2023-02-26T03:05:35;6.85;;;2.88;;
30000;SDS011;16845;48.670;9.000;2023-02-26T03:08:05;3.83;;;2.63;;
30000;SDS011;16845;48.670;9.000;2023-02-26T03:10:36;9.57;;;2.50;;
30000;SDS011;16845;48.670;9.000;2023-02-26T03:13:04;5.57;;;3.33;;
30000;SDS011;16845;48.670;9.000;2023-02-26T03:15:35;6.10;;;2.65;;
30000;SDS011;16845;48.670;9.000;2023-02-26T03:18:14;8.07;;;3.03;;
30000;SDS011;16845;48.670;9.000;2023-02-26T03:20:51;4.93;;;2.40;;
30000;SDS011;16845;48.670;9.000;2023-02-26T03:23:25;4.18;;;2.83;;
30000;SDS011;16845;48.670;9.000;2023-02-26T03:25:59;4.32;;;2.67;;
30000;SDS011;16845;48.670;9.000;2023-02-26T03:28:38;10.75;;;2.97;;
30000;SDS011;16845;48.670;9.000;2023-02-26T03:31:12;8.30;;;3.25;;
30000;SDS011;16845;48.670;9.000;2023-02-26T03:33:46;8.18;;;2.58;;
30000;SDS011;16845;48.670;9.000;2023-02-26T03:36:22;5.70;;;3.65;;
30000;SDS011;16845;48.670;9.000;2023-02-26T03:38:54;7.68;;;2.95;;
30000;SDS011;16845;48.670;9.000;2023-02-26T03:41:26;4.80;;;3.03;;
30000;SDS011;16845;48.670;9.000;2023-02-26T03:43:59;9.23;;;3.47;;
30000;SDS011;16845;48.670;9.000;2023-02-26T03:46:32;9.55;;;3.03;;
30000;SDS011;16845;48.670;9.000;2023-02-26T03:49:06;7.55;;;3.30;;
30000;SDS011;16845;48.670;9.000;2023-02-26T03:51:41;9.52;;;3.40;;
30000;SDS011;16845;48.670;9.000;2023-02-26T03:54:12;8.38;;;3.47;;
30000;SDS011;16845;48.670;9.000;2023-02-26T03:56:45;8.55;;;2.70;;
30000;SDS011;16845;48.670;9.000;2023-02-26T03:59:14;2.67;;;2.45;;
30000;SDS011;16845;48.670;9.000;2023-02-26T04:01:44;9.02;;;3.13;;
30000;SDS011;16845;48.670;9.000;2023-02-26T04:04:18;10.68;;;3.63;;
30000;SDS011;16845;48.670;9.000;2023-02-26T04:06:49;7.38;;;3.13;;
30000;SDS011;16845;48.670;9.000;2023-02-26T04:09:19;6.10;;;2.97;;
30000;SDS011;16845;48.670;9.000;2023-02-26T04:11:48;7.35;;;3.10;;
30000;SDS011;16845;48.670;9.000;2023-02-26T04:14:17;9.80;;;3.10;;
30000;SDS011;16845;48.670;9.000;2023-02-26T04:16:45;11.98;;;4.20;;
30000;SDS011;16845;48.670;9.000;2023-02-26T04:19:14;7.63;;;3.35;;
30000;SDS011;16845;48.670;9.000;2023-02-26T04:21:43;10.65;;;3.45;;
30000;SDS011;16845;48.670;9.000;2023-02-26T04:24:11;10.90;;;3.83;;
30000;SDS011;16845;48.670;9.000;2023-02-26T04:26:39;9.60;;;3.50;;
30000;SDS011;16845;48.670;9.000;2023-02-26T04:29:07;6.47;;;2.72;;
30000;SDS011;16845;48.670;9.000;2023-02-26T04:31:35;7.53;;;3.20;;
30000;SDS011;16845;48.670;9.000;2023-02-26T04:34:03;5.00;;;3.95;;
30000;SDS011;16845;48.670;9.000;2023-02-26T04:36:31;12.15;;;3.65;;
30000;SDS011;16845;48.670;9.000;2023-02-26T04:39:01;10.10;;;3.72;;
30000;SDS011;16845;48.670;9.000;2023-02-26T04:41:29;8.18;;;3.42;;
30000;SDS011;16845;48.670;9.000;2023-02-26T04:43:57;10.18;;;4.45;;
30000;SDS011;16845;48.670;9.000;2023-02-26T04:46:25;5.03;;;3.30;;
30000;SDS011;16845;48.670;9.000;2023-02-26T04:48:53;8.98;;;3.92;;
30000;SDS011;16845;48.670;9.000;2023-02-26T04:51:21;7.57;;;3.40;;
30000;SDS011;16845;48.670;9.000;2023-02-26T04:53:49;8.65;;;3.42;;
30000;SDS011;16845;48.670;9.000;2023-02-26T04:56:18;9.18;;;3.15;;
30000;SDS011;16845;48.670;9.000;2023-02-26T04:58:46;6.35;;;4.20;;
30000;SDS011;16845;48.670;9.000;2023-02-26T05:01:15;7.55;;;3.25;;
30000;SDS011;16845;48.670;9.000;2023-02-26T05:03:43;9.77;;;2.90;;
30000;SDS011;16845;48.670;9.000;2023-02-26T05:06:11;12.23;;;3.95;;
30000;SDS011;16845;48.670;9.000;2023-02-26T05:08:39;8.35;;;3.08;;
30000;SDS011;16845;48.670;9.000;2023-02-26T05:11:08;10.10;;;3.08;;
30000;SDS011;16845;48.670;9.000;2023-02-26T05:13:38;14.50;;;5.93;;
30000;SDS011;16845;48.670;9.000;2023-02-26T05:16:06;6.88;;;3.22;;
30000;SDS011;16845;48.670;9.000;2023-02-26T05:18:34;8.52;;;3.92;;
30000;SDS011;16845;48.670;9.000;2023-02-26T05:21:03;5.75;;;3.15;;
30000;SDS011;16845;48.670;9.000;2023-02-26T05:23:31;8.88;;;3.47;;
30000;SDS011;16845;48.670;9.000;2023-02-26T05:25:59;10.40;;;3.58;;
30000;SDS011;16845;48.670;9.000;2023-02-26T05:28:27;6.45;;;3.80;;
30000;SDS011;16845;48.670;9.000;2023-02-26T05:30:56;7.53;;;3.50;;
30000;SDS011;16845;48.670;9.000;2023-02-26T05:33:24;11.93;;;3.70;;
30000;SDS011;16845;48.670;9.000;2023-02-26T05:35:52;11.20;;;3.60;;
30000;SDS011;16845;48.670;9.000;2023-02-26T05:38:21;4.85;;;3.03;;
30000;SDS011;16845;48.670;9.000;2023-02-26T05:40:49;7.45;;;3.53;;
30000;SDS011;16845;48.670;9.000;2023-02-26T05:43:21;8.52;;;3.80;;
30000;SDS011;16845;48.670;9.000;2023-02-26T05:45:50;6.80;;;3.13;;
30000;SDS011;16845;48.670;9.000;2023-02-26T05:48:19;7.15;;;3.55;;
30000;SDS011;16845;48.670;9.000;2023-02-26T05:50:48;10.70;;;4.15;;
30000;SDS011;16845;48.670;9.000;2023-02-26T05:53:16;6.68;;;4.47;;
30000;SDS011;16845;48.670;9.000;2023-02-26T05:55:45;7.18;;;5.07;;
30000;SDS011;16845;48.670;9.000;2023-02-26T05:58:13;8.43;;;3.33;;
30000;SDS011;16845;48.670;9.000;2023-02-26T06:00:41;8.75;;;4.05;;
30000;SDS011;16845;48.670;9.000;2023-02-26T06:03:09;9.68;;;3.33;;
30000;SDS011;16845;48.670;9.000;2023-02-26T06:05:39;6.32;;;3.40;;
30000;SDS011;16845;48.670;9.000;2023-02-26T06:08:07;6.35;;;3.30;;
30000;SDS011;16845;48.670;9.000;2023-02-26T06:10:37;10.85;;;3.35;;
30000;SDS011;16845;48.670;9.000;2023-02-26T06:13:05;10.18;;;3.58;;
30000;SDS011;16845;48.670;9.000;2023-02-26T06:15:33;9.00;;;3.72;;
30000;SDS011;16845;48.670;9.000;2023-02-26T06:18:01;8.57;;;3.88;;
30000;SDS011;16845;48.670;9.000;2023-02-26T06:20:29;5.68;;;3.58;;
30000;SDS011;16845;48.670;9.000;2023-02-26T06:22:58;6.13;;;3.50;;
30000;SDS011;16845;48.670;9.000;2023-02-26T06:25:26;8.55;;;3.63;;
30000;SDS011;16845;48.670;9.000;2023-02-26T06:27:54;11.45;;;3.80;;
30000;SDS011;16845;48.670;9.000;2023-02-26T06:30:22;7.55;;;3.40;;
30000;SDS011;16845;48.670;9.000;2023-02-26T06:32:50;9.35;;;4.57;;
30000;SDS011;16845;48.670;9.000;2023-02-26T06:35:18;8.75;;;4.70;;
30000;SDS011;16845;48.670;9.000;2023-02-26T06:37:46;7.20;;;3.70;;
30000;SDS011;16845;48.670;9.000;2023-02-26T06:40:15;7.65;;;3.67;;
30000;SDS011;16845;48.670;9.000;2023-02-26T06:42:43;10.60;;;4.28;;
30000;SDS011;16845;48.670;9.000;2023-02-26T06:45:11;11.77;;;4.07;;
30000;SDS011;16845;48.670;9.000;2023-02-26T06:47:39;7.18;;;4.07;;
30000;SDS011;16845;48.670;9.000;2023-02-26T06:50:08;7.45;;;3.88;;
30000;SDS011;16845;48.670;9.000;2023-02-26T06:52:36;13.90;;;4.47;;
30000;SDS011;16845;48.670;9.000;2023-02-26T06:55:05;11.68;;;5.68;;
30000;SDS011;16845;48.670;9.000;2023-02-26T06:57:35;7.10;;;3.70;;
30000;SDS011;16845;48.670;9.000;2023-02-26T07:00:03;10.43;;;3.50;;
30000;SDS011;16845;48.670;9.000;2023-02-26T07:02:32;17.50;;;4.47;;
30000;SDS011;16845;48.670;9.000;2023-02-26T07:05:00;7.25;;;3.45;;
30000;SDS011;16845;48.670;9.000;2023-02-26T07:07:28;10.82;;;3.70;;
30000;SDS011;16845;48.670;9.000;2023-02-26T07:09:56;8.00;;;3.72;;
30000;SDS011;16845;48.670;9.000;2023-02-26T07:12:24;8.70;;;3.75;;
30000;SDS011;16845;48.670;9.000;2023-02-26T07:14:53;5.63;;;3.78;;
30000;SDS011;16845;48.670;9.000;2023-02-26T07:17:21;15.30;;;4.18;;
30000;SDS011;16845;48.670;9.000;2023-02-26T07:19:50;8.57;;;4.00;;
30000;SDS011;16845;48.670;9.000;2023-02-26T07:22:19;13.02;;;3.58;;
30000;SDS011;16845;48.670;9.000;2023-02-26T07:24:47;7.07;;;3.58;;
30000;SDS011;16845;48.670;9.000;2023-02-26T07:27:16;9.68;;;3.92;;
30000;SDS011;16845;48.670;9.000;2023-02-26T07:29:44;10.25;;;3.83;;
30000;SDS011;16845;48.670;9.000;2023-02-26T07:32:14;6.30;;;4.05;;
30000;SDS011;16845;48.670;9.000;2023-02-26T07:34:41;7.00;;;3.30;;
30000;SDS011;16845;48.670;9.000;2023-02-26T07:37:09;6.38;;;3.42;;
30000;SDS011;16845;48.670;9.000;2023-02-26T07:39:37;13.40;;;5.57;;
30000;SDS011;16845;48.670;9.000;2023-02-26T07:42:05;8.82;;;4.57;;
30000;SDS011;16845;48.670;9.000;2023-02-26T07:44:34;10.63;;;4.78;;
30000;SDS011;16845;48.670;9.000;2023-02-26T07:47:02;8.60;;;3.92;;
30000;SDS011;16845;48.670;9.000;2023-02-26T07:49:32;4.00;;;2.50;;
30000;SDS011;16845;48.670;9.000;2023-02-26T07:52:00;10.80;;;5.00;;
30000;SDS011;16845;48.670;9.000;2023-02-26T07:54:29;10.23;;;3.13;;
30000;SDS011;16845;48.670;9.000;2023-02-26T07:56:57;6.22;;;2.90;;
30000;SDS011;16845;48.670;9.000;2023-02-26T07:59:25;11.48;;;3.03;;
30000;SDS011;16845;48.670;9.000;2023-02-26T08:01:53;5.47;;;2.72;;
30000;SDS011;16845;48.670;9.000;2023-02-26T08:04:21;5.43;;;2.83;;
30000;SDS011;16845;48.670;9.000;2023-02-26T08:06:50;8.27;;;2.78;;
30000;SDS011;16845;48.670;9.000;2023-02-26T08:09:19;5.85;;;2.70;;
30000;SDS011;16845;48.670;9.000;2023-02-26T08:11:48;5.90;;;2.97;;
30000;SDS011;16845;48.670;9.000;2023-02-26T08:14:16;15.65;;;3.70;;
30000;SDS011;16845;48.670;9.000;2023-02-26T08:16:44;10.73;;;2.95;;
30000;SDS011;16845;48.670;9.000;2023-02-26T08:19:11;10.40;;;2.97;;
30000;SDS011;16845;48.670;9.000;2023-02-26T08:21:39;5.97;;;3.55;;
30000;SDS011;16845;48.670;9.000;2023-02-26T08:24:10;7.10;;;2.50;;
30000;SDS011;16845;48.670;9.000;2023-02-26T08:26:38;7.93;;;2.90;;
30000;SDS011;16845;48.670;9.000;2023-02-26T08:29:06;6.32;;;2.63;;
30000;SDS011;16845;48.670;9.000;2023-02-26T08:31:35;7.55;;;3.97;;
30000;SDS011;16845;48.670;9.000;2023-02-26T08:34:03;8.48;;;3.03;;
30000;SDS011;16845;48.670;9.000;2023-02-26T08:36:31;5.90;;;2.80;;
30000;SDS011;16845;48.670;9.000;2023-02-26T08:38:59;4.60;;;2.88;;
30000;SDS011;16845;48.670;9.000;2023-02-26T08:41:28;6.53;;;2.83;;
30000;SDS011;16845;48.670;9.000;2023-02-26T08:43:57;4.18;;;2.45;;
30000;SDS011;16845;48.670;9.000;2023-02-26T08:46:26;5.45;;;3.25;;
30000;SDS011;16845;48.670;9.000;2023-02-26T08:48:55;6.97;;;3.22;;
30000;SDS011;16845;48.670;9.000;2023-02-26T08:51:23;10.85;;;3.47;;
30000;SDS011;16845;48.670;9.000;2023-02-26T08:53:51;4.53;;;2.78;;
30000;SDS011;16845;48.670;9.000;2023-02-26T08:56:19;5.20;;;2.75;;
30000;SDS011;16845;48.670;9.000;2023-02-26T08:58:49;4.93;;;2.40;;
30000;SDS011;16845;48.670;9.000;2023-02-26T09:01:17;5.65;;;2.45;;
30000;SDS011;16845;48.670;9.000;2023-02-26T09:03:45;4.35;;;3.40;;
30000;SDS011;16845;48.670;9.000;2023-02-26T09:06:13;7.95;;;3.22;;
30000;SDS011;16845;48.670;9.000;2023-02-26T09:08:41;5.43;;;2.70;;
30000;SDS011;16845;48.670;9.000;2023-02-26T09:11:09;4.22;;;2.67;;
30000;SDS011;16845;48.670;9.000;2023-02-26T09:13:37;5.03;;;2.30;;
30000;SDS011;16845;48.670;9.000;2023-02-26T09:16:07;7.07;;;2.80;;
30000;SDS011;16845;48.670;9.000;2023-02-26T09:18:35;5.47;;;2.50;;
30000;SDS011;16845;48.670;9.000;2023-02-26T09:21:03;6.70;;;2.00;;
30000;SDS011;16845;48.670;9.000;2023-02-26T09:23:31;8.43;;;3.55;;
30000;SDS011;16845;48.670;9.000;2023-02-26T09:25:59;3.63;;;2.58;;
30000;SDS011;16845;48.670;9.000;2023-02-26T09:28:27;4.35;;;2.70;;
30000;SDS011;16845;48.670;9.000;2023-02-26T09:30:55;3.72;;;2.45;;
30000;SDS011;16845;48.670;9.000;2023-02-26T09:33:24;4.03;;;2.33;;
30000;SDS011;16845;48.670;9.000;2023-02-26T09:35:52;6.72;;;2.85;;
30000;SDS011;16845;48.670;9.000;2023-02-26T09:38:20;8.13;;;2.67;;
30000;SDS011;16845;48.670;9.000;2023-02-26T09:40:49;5.25;;;2.47;;
30000;SDS011;16845;48.670;9.000;2023-02-26T09:46:29;3.95;;;2.58;;
30000;SDS011;16845;48.670;9.000;2023-02-26T09:49:06;8.20;;;2.95;;
30000;SDS011;16845;48.670;9.000;2023-02-26T09:51:43;4.20;;;2.40;;
30000;SDS011;16845;48.670;9.000;2023-02-26T09:54:16;5.43;;;2.80;;
30000;SDS011;16845;48.670;9.000;2023-02-26T09:56:48;3.92;;;2.80;;
30000;SDS011;16845;48.670;9.000;2023-02-26T09:59:18;4.57;;;2.05;;
30000;SDS011;16845;48.670;9.000;2023-02-26T10:01:47;7.25;;;3.25;;
30000;SDS011;16845;48.670;9.000;2023-02-26T10:04:29;5.05;;;2.30;;
30000;SDS011;16845;48.670;9.000;2023-02-26T10:07:14;7.32;;;2.17;;
30000;SDS011;16845;48.670;9.000;2023-02-26T10:09:51;6.70;;;2.95;;
30000;SDS011;16845;48.670;9.000;2023-02-26T10:12:26;6.32;;;2.85;;
30000;SDS011;16845;48.670;9.000;2023-02-26T10:14:57;5.95;;;2.25;;
30000;SDS011;16845;48.670;9.000;2023-02-26T10:17:29;2.63;;;2.03;;
30000;SDS011;16845;48.670;9.000;2023-02-26T10:20:03;5.72;;;3.00;;
30000;SDS011;16845;48.670;9.000;2023-02-26T10:22:39;4.15;;;2.30;;
30000;SDS011;16845;48.670;9.000;2023-02-26T10:25:15;7.18;;;2.85;;
30000;SDS011;16845;48.670;9.000;2023-02-26T10:27:50;5.65;;;2.60;;
30000;SDS011;16845;48.670;9.000;2023-02-26T10:30:27;5.72;;;2.40;;
30000;SDS011;16845;48.670;9.000;2023-02-26T10:33:02;4.03;;;2.72;;
30000;SDS011;16845;48.670;9.000;2023-02-26T10:35:39;3.42;;;2.67;;
30000;SDS011;16845;48.670;9.000;2023-02-26T10:38:12;9.90;;;4.07;;
30000;SDS011;16845;48.670;9.000;2023-02-26T10:40:46;6.25;;;2.65;;
30000;SDS011;16845;48.670;9.000;2023-02-26T10:43:18;3.95;;;2.60;;
30000;SDS011;16845;48.670;9.000;2023-02-26T10:45:54;4.68;;;3.10;;
30000;SDS011;16845;48.670;9.000;2023-02-26T10:48:34;6.15;;;3.20;;
30000;SDS011;16845;48.670;9.000;2023-02-26T10:51:14;6.30;;;3.13;;
30000;SDS011;16845;48.670;9.000;2023-02-26T10:53:46;8.80;;;2.58;;
30000;SDS011;16845;48.670;9.000;2023-02-26T10:56:19;4.40;;;2.42;;
30000;SDS011;16845;48.670;9.000;2023-02-26T10:58:51;6.28;;;2.63;;
30000;SDS011;16845;48.670;9.000;2023-02-26T11:01:20;8.27;;;2.88;;
30000;SDS011;16845;48.670;9.000;2023-02-26T11:03:53;5.78;;;3.00;;
30000;SDS011;16845;48.670;9.000;2023-02-26T11:06:26;5.75;;;2.38;;
30000;SDS011;16845;48.670;9.000;2023-02-26T11:08:56;6.90;;;2.67;;
30000;SDS011;16845;48.670;9.000;2023-02-26T11:11:38;7.88;;;2.80;;
30000;SDS011;16845;48.670;9.000;2023-02-26T11:14:08;4.93;;;2.53;;
30000;SDS011;16845;48.670;9.000;2023-02-26T11:16:40;4.10;;;2.38;;
30000;SDS011;16845;48.670;9.000;2023-02-26T11:19:13;4.32;;;2.50;;
30000;SDS011;16845;48.670;9.000;2023-02-26T11:21:44;4.55;;;2.60;;
30000;SDS011;16845;48.670;9.000;2023-02-26T11:24:15;3.50;;;2.67;;
30000;SDS011;16845;48.670;9.000;2023-02-26T11:26:50;2.90;;;1.92;;
30000;SDS011;16845;48.670;9.000;2023-02-26T11:29:21;2.97;;;2.25;;
30000;SDS011;16845;48.670;9.000;2023-02-26T11:31:52;4.60;;;2.40;;
30000;SDS011;16845;48.670;9.000;2023-02-26T11:34:24;7.22;;;2.47;;
30000;SDS011;16845;48.670;9.000;2023-02-26T11:36:54;5.22;;;2.85;;
30000;SDS011;16845;48.670;9.000;2023-02-26T11:39:25;2.55;;;2.20;;
30000;SDS011;16845;48.670;9.000;2023-02-26T11:41:56;3.55;;;2.63;;
30000;SDS011;16845;48.670;9.000;2023-02-26T11:44:30;5.88;;;2.10;;
30000;SDS011;16845;48.670;9.000;2023-02-26T11:47:02;6.22;;;2.60;;
30000;SDS011;16845;48.670;9.000;2023-02-26T11:49:33;4.45;;;2.67;;
30000;SDS011;16845;48.670;9.000;2023-02-26T11:52:05;3.22;;;2.50;;
30000;SDS011;16845;48.670;9.000;2023-02-26T11:54:43;4.65;;;2.45;;
30000;SDS011;16845;48.670;9.000;2023-02-26T11:57:14;5.18;;;2.85;;
30000;SDS011;16845;48.670;9.000;2023-02-26T11:59:46;4.28;;;2.38;;
30000;SDS011;16845;48.670;9.000;2023-02-26T12:02:17;6.55;;;2.25;;
30000;SDS011;16845;48.670;9.000;2023-02-26T12:04:47;5.57;;;2.75;;
30000;SDS011;16845;48.670;9.000;2023-02-26T12:07:19;2.95;;;2.10;;
30000;SDS011;16845;48.670;9.000;2023-02-26T12:09:48;4.15;;;2.65;;
30000;SDS011;16845;48.670;9.000;2023-02-26T12:12:26;10.50;;;2.50;;
30000;SDS011;16845;48.670;9.000;2023-02-26T12:15:16;3.90;;;2.38;;
30000;SDS011;16845;48.670;9.000;2023-02-26T12:18:09;2.95;;;2.10;;
30000;SDS011;16845;48.670;9.000;2023-02-26T12:20:46;2.58;;;2.38;;
30000;SDS011;16845;48.670;9.000;2023-02-26T12:23:30;2.80;;;2.17;;
30000;SDS011;16845;48.670;9.000;2023-02-26T12:26:15;3.55;;;2.40;;
30000;SDS011;16845;48.670;9.000;2023-02-26T12:32:04;5.35;;;2.55;;
30000;SDS011;16845;48.670;9.000;2023-02-26T12:35:01;2.42;;;2.22;;
30000;SDS011;16845;48.670;9.000;2023-02-26T12:37:47;2.70;;;2.20;;
30000;SDS011;16845;48.670;9.000;2023-02-26T12:40:27;2.83;;;2.25;;
30000;SDS011;16845;48.670;9.000;2023-02-26T12:43:10;3.42;;;2.20;;
30000;SDS011;16845;48.670;9.000;2023-02-26T12:45:44;2.33;;;1.70;;
30000;SDS011;16845;48.670;9.000;2023-02-26T12:51:14;3.85;;;1.90;;
30000;SDS011;16845;48.670;9.000;2023-02-26T12:53:57;3.05;;;2.10;;
30000;SDS011;16845;48.670;9.000;2023-02-26T13:05:37;2.63;;;1.65;;
30000;SDS011;16845;48.670;9.000;2023-02-26T13:08:19;5.55;;;3.00;;
30000;SDS011;16845;48.670;9.000;2023-02-26T13:10:56;1.98;;;1.77;;
30000;SDS011;16845;48.670;9.000;2023-02-26T13:13:39;2.97;;;1.80;;
30000;SDS011;16845;48.670;9.000;2023-02-26T13:16:25;3.28;;;2.10;;
30000;SDS011;16845;48.670;9.000;2023-02-26T13:19:03;1.70;;;1.60;;
30000;SDS011;16845;48.670;9.000;2023-02-26T13:21:40;4.30;;;1.98;;
30000;SDS011;16845;48.670;9.000;2023-02-26T13:24:12;5.30;;;2.42;;
30000;SDS011;16845;48.670;9.000;2023-02-26T13:26:45;4.10;;;2.15;;
30000;SDS011;16845;48.670;9.000;2023-02-26T13:29:16;1.90;;;1.67;;
30000;SDS011;16845;48.670;9.000;2023-02-26T13:31:48;2.80;;;1.80;;
30000;SDS011;16845;48.670;9.000;2023-02-26T13:34:22;3.05;;;2.08;;
30000;SDS011;16845;48.670;9.000;2023-02-26T13:36:52;2.35;;;1.92;;
30000;SDS011;16845;48.670;9.000;2023-02-26T13:39:27;4.95;;;2.20;;
30000;SDS011;16845;48.670;9.000;2023-02-26T13:42:04;4.60;;;2.60;;
30000;SDS011;16845;48.670;9.000;2023-02-26T13:44:45;1.90;;;1.80;;
30000;SDS011;16845;48.670;9.000;2023-02-26T13:47:26;2.42;;;2.00;;
30000;SDS011;16845;48.670;9.000;2023-02-26T13:50:18;2.00;;;1.70;;
30000;SDS011;16845;48.670;9.000;2023-02-26T13:52:54;3.35;;;2.00;;
30000;SDS011;16845;48.670;9.000;2023-02-26T13:58:17;3.17;;;2.33;;
30000;SDS011;16845;48.670;9.000;2023-02-26T14:00:58;1.48;;;1.38;;
30000;SDS011;16845;48.670;9.000;2023-02-26T14:03:33;3.78;;;1.95;;
30000;SDS011;16845;48.670;9.000;2023-02-26T14:06:07;3.60;;;2.15;;
30000;SDS011;16845;48.670;9.000;2023-02-26T14:08:44;3.67;;;1.48;;
30000;SDS011;16845;48.670;9.000;2023-02-26T14:14:16;2.58;;;1.52;;
30000;SDS011;16845;48.670;9.000;2023-02-26T14:16:53;3.08;;;1.90;;
30000;SDS011;16845;48.670;9.000;2023-02-26T14:19:44;1.95;;;1.65;;
30000;SDS011;16845;48.670;9.000;2023-02-26T14:23:09;2.65;;;1.70;;
30000;SDS011;16845;48.670;9.000;2023-02-26T14:25:40;1.85;;;1.45;;
30000;SDS011;16845;48.670;9.000;2023-02-26T14:28:17;1.73;;;1.33;;
30000;SDS011;16845;48.670;9.000;2023-02-26T14:31:03;3.35;;;1.60;;
30000;SDS011;16845;48.670;9.000;2023-02-26T14:33:39;2.83;;;1.65;;
30000;SDS011;16845;48.670;9.000;2023-02-26T14:36:14;1.77;;;1.52;;
30000;SDS011;16845;48.670;9.000;2023-02-26T14:38:45;1.30;;;1.20;;
30000;SDS011;16845;48.670;9.000;2023-02-26T14:41:19;1.60;;;1.50;;
30000;SDS011;16845;48.670;9.000;2023-02-26T14:43:56;3.17;;;1.48;;
30000;SDS011;16845;48.670;9.000;2023-02-26T14:46:27;1.52;;;1.35;;
30000;SDS011;16845;48.670;9.000;2023-02-26T14:48:57;1.63;;;1.30;;
30000;SDS011;16845;48.670;9.000;2023-02-26T14:51:28;1.38;;;1.27;;
30000;SDS011;16845;48.670;9.000;2023-02-26T14:54:25;1.88;;;1.60;;
30000;SDS011;16845;48.670;9.000;2023-02-26T14:57:06;1.77;;;1.38;;
30000;SDS011;16845;48.670;9.000;2023-02-26T14:59:51;4.43;;;1.60;;
30000;SDS011;16845;48.670;9.000;2023-02-26T15:02:37;1.70;;;1.60;;
30000;SDS011;16845;48.670;9.000;2023-02-26T15:05:24;1.33;;;1.13;;
30000;SDS011;16845;48.670;9.000;2023-02-26T15:08:13;1.05;;;1.00;;
30000;SDS011;16845;48.670;9.000;2023-02-26T15:11:05;1.73;;;1.42;;
30000;SDS011;16845;48.670;9.000;2023-02-26T15:13:51;2.00;;;1.27;;
30000;SDS011;16845;48.670;9.000;2023-02-26T15:16:37;1.52;;;1.42;;
30000;SDS011;16845;48.670;9.000;2023-02-26T15:19:19;2.53;;;1.23;;
30000;SDS011;16845;48.670;9.000;2023-02-26T15:22:02;3.45;;;1.77;;
30000;SDS011;16845;48.670;9.000;2023-02-26T15:24:40;2.15;;;1.85;;
30000;SDS011;16845;48.670;9.000;2023-02-26T15:27:09;2.67;;;1.75;;
30000;SDS011;16845;48.670;9.000;2023-02-26T15:29:42;3.17;;;1.35;;
30000;SDS011;16845;48.670;9.000;2023-02-26T15:32:14;3.33;;;1.48;;
30000;SDS011;16845;48.670;9.000;2023-02-26T15:34:53;1.77;;;1.67;;
30000;SDS011;16845;48.670;9.000;2023-02-26T15:37:26;1.80;;;1.50;;
30000;SDS011;16845;48.670;9.000;2023-02-26T15:39:55;1.25;;;1.10;;
30000;SDS011;16845;48.670;9.000;2023-02-26T15:42:25;1.58;;;1.40;;
30000;SDS011;16845;48.670;9.000;2023-02-26T15:44:59;2.47;;;1.90;;
30000;SDS011;16845;48.670;9.000;2023-02-26T15:47:28;2.75;;;1.80;;